sensor_id;sensor_type;location;lat;lon;timestamp;P1;durP1;ratioP1;P2;durP2;ratioP2
1402;SDS011;696;48.546;9.896;2023-04-03T00:00:50;10.90;;;3.60;;
1402;SDS011;696;48.546;9.896;2023-04-03T00:03:16;4.60;;;3.90;;
1402;SDS011;696;48.546;9.896;2023-04-03T00:05:42;6.72;;;4.60;;
1402;SDS011;696;48.546;9.896;2023-04-03T00:08:08;6.03;;;4.15;;
1402;SDS011;696;48.546;9.896;2023-04-03T00:10:35;5.57;;;4.25;;
1402;SDS011;696;48.546;9.896;2023-04-03T00:13:01;6.63;;;4.10;;
1402;SDS011;696;48.546;9.896;2023-04-03T00:15:27;4.63;;;3.60;;
1402;SDS011;696;48.546;9.896;2023-04-03T00:17:52;5.60;;;3.90;;
1402;SDS011;696;48.546;9.896;2023-04-03T00:20:18;5.40;;;3.47;;
1402;SDS011;696;48.546;9.896;2023-04-03T00:22:43;4.88;;;3.72;;
1402;SDS011;696;48.546;9.896;2023-04-03T00:25:08;5.03;;;3.88;;
1402;SDS011;696;48.546;9.896;2023-04-03T00:27:35;5.85;;;4.20;;
1402;SDS011;696;48.546;9.896;2023-04-03T00:30:02;4.93;;;3.65;;
1402;SDS011;696;48.546;9.896;2023-04-03T00:32:27;5.47;;;4.05;;
1402;SDS011;696;48.546;9.896;2023-04-03T00:34:53;5.20;;;3.90;;
1402;SDS011;696;48.546;9.896;2023-04-03T00:37:18;5.03;;;3.20;;
1402;SDS011;696;48.546;9.896;2023-04-03T00:39:43;8.40;;;4.00;;
1402;SDS011;696;48.546;9.896;2023-04-03T00:42:09;6.82;;;3.38;;
1402;SDS011;696;48.546;9.896;2023-04-03T00:47:00;5.28;;;3.88;;
1402;SDS011;696;48.546;9.896;2023-04-03T00:49:25;5.95;;;3.90;;
1402;SDS011;696;48.546;9.896;2023-04-03T00:51:51;4.78;;;3.60;;
1402;SDS011;696;48.546;9.896;2023-04-03T00:54:17;3.75;;;3.38;;
1402;SDS011;696;48.546;9.896;2023-04-03T00:56:42;4.20;;;3.40;;
1402;SDS011;696;48.546;9.896;2023-04-03T00:59:10;6.10;;;3.50;;
1402;SDS011;696;48.546;9.896;2023-04-03T01:01:37;6.20;;;3.85;;
1402;SDS011;696;48.546;9.896;2023-04-03T01:04:04;4.68;;;3.65;;
1402;SDS011;696;48.546;9.896;2023-04-03T01:06:32;3.55;;;2.88;;
1402;SDS011;696;48.546;9.896;2023-04-03T01:08:59;6.10;;;3.65;;
1402;SDS011;696;48.546;9.896;2023-04-03T01:11:25;5.18;;;3.67;;
1402;SDS011;696;48.546;9.896;2023-04-03T01:13:51;5.25;;;3.70;;
1402;SDS011;696;48.546;9.896;2023-04-03T01:16:16;4.20;;;3.55;;
1402;SDS011;696;48.546;9.896;2023-04-03T01:18:42;4.18;;;3.53;;
1402;SDS011;696;48.546;9.896;2023-04-03T01:21:15;4.20;;;3.42;;
1402;SDS011;696;48.546;9.896;2023-04-03T01:24:05;5.22;;;3.60;;
1402;SDS011;696;48.546;9.896;2023-04-03T01:26:51;4.95;;;3.47;;
1402;SDS011;696;48.546;9.896;2023-04-03T01:29:17;4.40;;;2.92;;
1402;SDS011;696;48.546;9.896;2023-04-03T01:34:11;4.72;;;3.75;;
1402;SDS011;696;48.546;9.896;2023-04-03T01:36:36;5.65;;;3.78;;
1402;SDS011;696;48.546;9.896;2023-04-03T01:39:01;4.43;;;3.67;;
1402;SDS011;696;48.546;9.896;2023-04-03T01:41:27;3.80;;;3.50;;
1402;SDS011;696;48.546;9.896;2023-04-03T01:43:53;7.05;;;4.05;;
1402;SDS011;696;48.546;9.896;2023-04-03T01:46:19;5.68;;;3.72;;
1402;SDS011;696;48.546;9.896;2023-04-03T01:48:45;5.40;;;4.20;;
1402;SDS011;696;48.546;9.896;2023-04-03T01:51:10;4.00;;;3.33;;
1402;SDS011;696;48.546;9.896;2023-04-03T01:53:36;5.85;;;3.33;;
1402;SDS011;696;48.546;9.896;2023-04-03T01:56:01;4.57;;;3.28;;
1402;SDS011;696;48.546;9.896;2023-04-03T01:58:27;6.70;;;3.70;;
1402;SDS011;696;48.546;9.896;2023-04-03T02:00:52;5.85;;;3.47;;
1402;SDS011;696;48.546;9.896;2023-04-03T02:03:18;5.40;;;3.42;;
1402;SDS011;696;48.546;9.896;2023-04-03T02:05:43;10.05;;;3.58;;
1402;SDS011;696;48.546;9.896;2023-04-03T02:08:09;8.57;;;3.78;;
1402;SDS011;696;48.546;9.896;2023-04-03T02:10:34;4.68;;;3.35;;
1402;SDS011;696;48.546;9.896;2023-04-03T02:13:00;4.22;;;3.00;;
1402;SDS011;696;48.546;9.896;2023-04-03T02:15:25;5.88;;;3.65;;
1402;SDS011;696;48.546;9.896;2023-04-03T02:17:51;5.57;;;3.25;;
1402;SDS011;696;48.546;9.896;2023-04-03T02:20:17;3.97;;;3.03;;
1402;SDS011;696;48.546;9.896;2023-04-03T02:22:42;4.50;;;3.38;;
1402;SDS011;696;48.546;9.896;2023-04-03T02:25:07;5.57;;;3.65;;
1402;SDS011;696;48.546;9.896;2023-04-03T02:27:33;8.30;;;3.50;;
1402;SDS011;696;48.546;9.896;2023-04-03T02:30:00;4.28;;;3.50;;
1402;SDS011;696;48.546;9.896;2023-04-03T02:32:25;10.32;;;4.07;;
1402;SDS011;696;48.546;9.896;2023-04-03T02:34:50;6.10;;;3.63;;
1402;SDS011;696;48.546;9.896;2023-04-03T02:37:16;6.10;;;3.50;;
1402;SDS011;696;48.546;9.896;2023-04-03T02:39:41;6.50;;;2.90;;
1402;SDS011;696;48.546;9.896;2023-04-03T02:42:06;4.90;;;3.22;;
1402;SDS011;696;48.546;9.896;2023-04-03T02:44:32;4.78;;;3.20;;
1402;SDS011;696;48.546;9.896;2023-04-03T02:46:58;4.20;;;3.33;;
1402;SDS011;696;48.546;9.896;2023-04-03T02:49:23;5.22;;;3.45;;
1402;SDS011;696;48.546;9.896;2023-04-03T02:51:48;4.80;;;3.05;;
1402;SDS011;696;48.546;9.896;2023-04-03T02:54:14;7.40;;;3.67;;
1402;SDS011;696;48.546;9.896;2023-04-03T02:56:40;4.43;;;3.47;;
1402;SDS011;696;48.546;9.896;2023-04-03T02:59:06;3.75;;;3.10;;
1402;SDS011;696;48.546;9.896;2023-04-03T03:01:31;2.97;;;2.67;;
1402;SDS011;696;48.546;9.896;2023-04-03T03:03:58;11.07;;;3.35;;
1402;SDS011;696;48.546;9.896;2023-04-03T03:06:24;3.78;;;2.70;;
1402;SDS011;696;48.546;9.896;2023-04-03T03:08:49;3.60;;;2.80;;
1402;SDS011;696;48.546;9.896;2023-04-03T03:11:15;3.38;;;2.65;;
1402;SDS011;696;48.546;9.896;2023-04-03T03:13:40;6.60;;;2.55;;
1402;SDS011;696;48.546;9.896;2023-04-03T03:16:06;5.63;;;3.30;;
1402;SDS011;696;48.546;9.896;2023-04-03T03:18:31;3.83;;;2.83;;
1402;SDS011;696;48.546;9.896;2023-04-03T03:20:58;3.80;;;2.80;;
1402;SDS011;696;48.546;9.896;2023-04-03T03:23:25;3.85;;;3.20;;
1402;SDS011;696;48.546;9.896;2023-04-03T03:25:55;5.65;;;3.63;;
1402;SDS011;696;48.546;9.896;2023-04-03T03:28:27;10.30;;;4.38;;
1402;SDS011;696;48.546;9.896;2023-04-03T03:30:53;7.90;;;3.80;;
1402;SDS011;696;48.546;9.896;2023-04-03T03:33:18;8.05;;;3.80;;
1402;SDS011;696;48.546;9.896;2023-04-03T03:35:44;3.92;;;2.80;;
1402;SDS011;696;48.546;9.896;2023-04-03T03:38:09;3.42;;;2.75;;
1402;SDS011;696;48.546;9.896;2023-04-03T03:40:35;9.43;;;2.25;;
1402;SDS011;696;48.546;9.896;2023-04-03T03:43:00;3.42;;;2.25;;
1402;SDS011;696;48.546;9.896;2023-04-03T03:45:25;2.78;;;2.20;;
1402;SDS011;696;48.546;9.896;2023-04-03T03:47:51;2.65;;;2.00;;
1402;SDS011;696;48.546;9.896;2023-04-03T03:50:16;4.35;;;2.33;;
1402;SDS011;696;48.546;9.896;2023-04-03T03:52:42;5.45;;;3.25;;
1402;SDS011;696;48.546;9.896;2023-04-03T03:55:07;6.68;;;3.42;;
1402;SDS011;696;48.546;9.896;2023-04-03T03:57:33;3.47;;;2.60;;
1402;SDS011;696;48.546;9.896;2023-04-03T03:59:58;7.15;;;4.18;;
1402;SDS011;696;48.546;9.896;2023-04-03T04:02:23;8.30;;;3.60;;
1402;SDS011;696;48.546;9.896;2023-04-03T04:04:49;11.25;;;4.05;;
1402;SDS011;696;48.546;9.896;2023-04-03T04:07:14;11.30;;;3.20;;
1402;SDS011;696;48.546;9.896;2023-04-03T04:09:39;6.13;;;3.50;;
1402;SDS011;696;48.546;9.896;2023-04-03T04:12:05;5.32;;;3.10;;
1402;SDS011;696;48.546;9.896;2023-04-03T04:14:30;4.38;;;2.63;;
1402;SDS011;696;48.546;9.896;2023-04-03T04:16:56;3.53;;;2.33;;
1402;SDS011;696;48.546;9.896;2023-04-03T04:19:21;7.57;;;3.05;;
1402;SDS011;696;48.546;9.896;2023-04-03T04:21:46;8.43;;;4.28;;
1402;SDS011;696;48.546;9.896;2023-04-03T04:24:12;8.65;;;5.60;;
1402;SDS011;696;48.546;9.896;2023-04-03T04:26:37;9.05;;;5.80;;
1402;SDS011;696;48.546;9.896;2023-04-03T04:29:03;5.53;;;4.07;;
1402;SDS011;696;48.546;9.896;2023-04-03T04:31:28;5.82;;;3.75;;
1402;SDS011;696;48.546;9.896;2023-04-03T04:33:53;4.60;;;2.83;;
1402;SDS011;696;48.546;9.896;2023-04-03T04:36:18;6.40;;;4.15;;
1402;SDS011;696;48.546;9.896;2023-04-03T04:38:44;6.70;;;3.08;;
1402;SDS011;696;48.546;9.896;2023-04-03T04:41:10;2.42;;;2.20;;
1402;SDS011;696;48.546;9.896;2023-04-03T04:43:35;3.38;;;2.22;;
1402;SDS011;696;48.546;9.896;2023-04-03T04:46:04;11.30;;;2.80;;
1402;SDS011;696;48.546;9.896;2023-04-03T04:48:31;2.53;;;2.28;;
1402;SDS011;696;48.546;9.896;2023-04-03T04:50:56;3.83;;;2.53;;
1402;SDS011;696;48.546;9.896;2023-04-03T04:53:22;3.40;;;2.53;;
1402;SDS011;696;48.546;9.896;2023-04-03T04:55:47;4.57;;;2.30;;
1402;SDS011;696;48.546;9.896;2023-04-03T04:58:13;4.65;;;2.58;;
1402;SDS011;696;48.546;9.896;2023-04-03T05:00:38;4.22;;;2.55;;
1402;SDS011;696;48.546;9.896;2023-04-03T05:03:04;3.38;;;2.45;;
1402;SDS011;696;48.546;9.896;2023-04-03T05:05:29;3.67;;;2.80;;
1402;SDS011;696;48.546;9.896;2023-04-03T05:07:55;4.15;;;2.40;;
1402;SDS011;696;48.546;9.896;2023-04-03T05:10:20;4.20;;;2.80;;
1402;SDS011;696;48.546;9.896;2023-04-03T05:12:45;3.22;;;2.63;;
1402;SDS011;696;48.546;9.896;2023-04-03T05:15:11;3.17;;;2.28;;
1402;SDS011;696;48.546;9.896;2023-04-03T05:17:36;3.67;;;2.53;;
1402;SDS011;696;48.546;9.896;2023-04-03T05:20:02;2.90;;;2.17;;
1402;SDS011;696;48.546;9.896;2023-04-03T05:22:29;10.82;;;2.85;;
1402;SDS011;696;48.546;9.896;2023-04-03T05:24:54;7.85;;;1.92;;
1402;SDS011;696;48.546;9.896;2023-04-03T05:27:20;3.05;;;2.10;;
1402;SDS011;696;48.546;9.896;2023-04-03T05:29:45;2.97;;;2.05;;
1402;SDS011;696;48.546;9.896;2023-04-03T05:32:11;3.00;;;2.15;;
1402;SDS011;696;48.546;9.896;2023-04-03T05:34:36;4.57;;;2.40;;
1402;SDS011;696;48.546;9.896;2023-04-03T05:37:02;3.75;;;2.40;;
1402;SDS011;696;48.546;9.896;2023-04-03T05:39:29;2.22;;;1.90;;
1402;SDS011;696;48.546;9.896;2023-04-03T05:41:55;2.83;;;1.98;;
1402;SDS011;696;48.546;9.896;2023-04-03T05:44:21;3.17;;;2.03;;
1402;SDS011;696;48.546;9.896;2023-04-03T05:46:46;2.17;;;1.98;;
1402;SDS011;696;48.546;9.896;2023-04-03T05:49:12;4.47;;;2.13;;
1402;SDS011;696;48.546;9.896;2023-04-03T05:51:38;5.57;;;2.55;;
1402;SDS011;696;48.546;9.896;2023-04-03T05:56:59;5.80;;;3.70;;
1402;SDS011;696;48.546;9.896;2023-04-03T05:59:24;2.88;;;2.53;;
1402;SDS011;696;48.546;9.896;2023-04-03T06:01:49;3.72;;;2.75;;
1402;SDS011;696;48.546;9.896;2023-04-03T06:04:15;2.90;;;2.45;;
1402;SDS011;696;48.546;9.896;2023-04-03T06:06:48;5.00;;;2.47;;
1402;SDS011;696;48.546;9.896;2023-04-03T06:09:22;5.32;;;2.60;;
1402;SDS011;696;48.546;9.896;2023-04-03T06:11:49;3.75;;;2.88;;
1402;SDS011;696;48.546;9.896;2023-04-03T06:14:15;2.85;;;2.42;;
1402;SDS011;696;48.546;9.896;2023-04-03T06:16:40;2.80;;;2.30;;
1402;SDS011;696;48.546;9.896;2023-04-03T06:19:06;3.00;;;2.10;;
1402;SDS011;696;48.546;9.896;2023-04-03T06:21:32;2.88;;;2.13;;
1402;SDS011;696;48.546;9.896;2023-04-03T06:23:58;3.10;;;2.47;;
1402;SDS011;696;48.546;9.896;2023-04-03T06:26:23;2.83;;;2.10;;
1402;SDS011;696;48.546;9.896;2023-04-03T06:28:48;2.25;;;1.70;;
1402;SDS011;696;48.546;9.896;2023-04-03T06:31:14;5.65;;;2.60;;
1402;SDS011;696;48.546;9.896;2023-04-03T06:33:39;2.92;;;2.40;;
1402;SDS011;696;48.546;9.896;2023-04-03T06:36:05;4.28;;;2.63;;
1402;SDS011;696;48.546;9.896;2023-04-03T06:38:32;3.90;;;2.90;;
1402;SDS011;696;48.546;9.896;2023-04-03T06:40:58;5.38;;;2.55;;
1402;SDS011;696;48.546;9.896;2023-04-03T06:43:24;3.28;;;2.17;;
1402;SDS011;696;48.546;9.896;2023-04-03T06:45:49;3.33;;;2.30;;
1402;SDS011;696;48.546;9.896;2023-04-03T06:48:15;12.98;;;3.00;;
1402;SDS011;696;48.546;9.896;2023-04-03T06:50:41;3.17;;;2.33;;
1402;SDS011;696;48.546;9.896;2023-04-03T06:53:06;3.40;;;2.35;;
1402;SDS011;696;48.546;9.896;2023-04-03T06:55:32;3.33;;;2.42;;
1402;SDS011;696;48.546;9.896;2023-04-03T06:57:57;4.13;;;2.58;;
1402;SDS011;696;48.546;9.896;2023-04-03T07:00:22;3.15;;;2.20;;
1402;SDS011;696;48.546;9.896;2023-04-03T07:02:48;3.00;;;2.20;;
1402;SDS011;696;48.546;9.896;2023-04-03T07:05:13;3.25;;;1.90;;
1402;SDS011;696;48.546;9.896;2023-04-03T07:07:38;3.78;;;2.33;;
1402;SDS011;696;48.546;9.896;2023-04-03T07:10:05;3.22;;;1.77;;
1402;SDS011;696;48.546;9.896;2023-04-03T07:12:31;4.13;;;2.47;;
1402;SDS011;696;48.546;9.896;2023-04-03T07:14:57;2.85;;;1.95;;
1402;SDS011;696;48.546;9.896;2023-04-03T07:17:23;2.30;;;1.65;;
1402;SDS011;696;48.546;9.896;2023-04-03T07:19:50;3.95;;;2.33;;
1402;SDS011;696;48.546;9.896;2023-04-03T07:22:15;3.83;;;2.20;;
1402;SDS011;696;48.546;9.896;2023-04-03T07:24:40;3.30;;;2.25;;
1402;SDS011;696;48.546;9.896;2023-04-03T07:27:06;2.45;;;1.98;;
1402;SDS011;696;48.546;9.896;2023-04-03T07:29:33;3.60;;;2.20;;
1402;SDS011;696;48.546;9.896;2023-04-03T07:31:59;2.72;;;2.00;;
1402;SDS011;696;48.546;9.896;2023-04-03T07:34:24;2.50;;;1.85;;
1402;SDS011;696;48.546;9.896;2023-04-03T07:36:50;2.25;;;1.90;;
1402;SDS011;696;48.546;9.896;2023-04-03T07:39:15;3.55;;;2.00;;
1402;SDS011;696;48.546;9.896;2023-04-03T07:41:41;4.07;;;2.13;;
1402;SDS011;696;48.546;9.896;2023-04-03T07:44:06;5.60;;;3.00;;
1402;SDS011;696;48.546;9.896;2023-04-03T07:46:34;2.97;;;1.90;;
1402;SDS011;696;48.546;9.896;2023-04-03T07:49:00;3.58;;;2.38;;
1402;SDS011;696;48.546;9.896;2023-04-03T07:51:25;3.38;;;2.25;;
1402;SDS011;696;48.546;9.896;2023-04-03T07:53:51;6.07;;;1.90;;
1402;SDS011;696;48.546;9.896;2023-04-03T07:56:17;2.50;;;1.77;;
1402;SDS011;696;48.546;9.896;2023-04-03T07:58:42;5.30;;;2.80;;
1402;SDS011;696;48.546;9.896;2023-04-03T08:01:08;10.90;;;2.40;;
1402;SDS011;696;48.546;9.896;2023-04-03T08:03:33;4.68;;;2.83;;
1402;SDS011;696;48.546;9.896;2023-04-03T08:06:05;4.60;;;2.97;;
1402;SDS011;696;48.546;9.896;2023-04-03T08:08:32;7.40;;;4.60;;
1402;SDS011;696;48.546;9.896;2023-04-03T08:10:59;8.07;;;4.65;;
1402;SDS011;696;48.546;9.896;2023-04-03T08:13:25;6.80;;;3.83;;
1402;SDS011;696;48.546;9.896;2023-04-03T08:15:51;8.88;;;5.07;;
1402;SDS011;696;48.546;9.896;2023-04-03T08:18:17;4.88;;;3.28;;
1402;SDS011;696;48.546;9.896;2023-04-03T08:20:43;9.95;;;2.75;;
1402;SDS011;696;48.546;9.896;2023-04-03T08:23:09;4.72;;;2.75;;
1402;SDS011;696;48.546;9.896;2023-04-03T08:25:42;8.68;;;2.80;;
1402;SDS011;696;48.546;9.896;2023-04-03T08:28:11;4.57;;;2.58;;
1402;SDS011;696;48.546;9.896;2023-04-03T08:30:40;5.55;;;2.45;;
1402;SDS011;696;48.546;9.896;2023-04-03T08:33:07;3.00;;;2.28;;
1402;SDS011;696;48.546;9.896;2023-04-03T08:35:32;6.63;;;3.92;;
1402;SDS011;696;48.546;9.896;2023-04-03T08:37:58;7.05;;;4.00;;
1402;SDS011;696;48.546;9.896;2023-04-03T08:40:23;6.57;;;2.97;;
1402;SDS011;696;48.546;9.896;2023-04-03T08:45:31;7.18;;;2.78;;
1402;SDS011;696;48.546;9.896;2023-04-03T08:48:13;3.97;;;2.63;;
1402;SDS011;696;48.546;9.896;2023-04-03T08:50:43;4.50;;;2.10;;
1402;SDS011;696;48.546;9.896;2023-04-03T08:53:15;3.13;;;2.40;;
1402;SDS011;696;48.546;9.896;2023-04-03T08:55:44;3.15;;;2.85;;
1402;SDS011;696;48.546;9.896;2023-04-03T09:03:19;5.68;;;2.88;;
1402;SDS011;696;48.546;9.896;2023-04-03T09:05:57;5.20;;;2.70;;
1402;SDS011;696;48.546;9.896;2023-04-03T09:08:30;3.80;;;2.33;;
1402;SDS011;696;48.546;9.896;2023-04-03T09:10:59;4.50;;;2.80;;
1402;SDS011;696;48.546;9.896;2023-04-03T09:16:37;6.50;;;2.30;;
1402;SDS011;696;48.546;9.896;2023-04-03T09:19:23;3.00;;;2.20;;
1402;SDS011;696;48.546;9.896;2023-04-03T09:21:52;3.10;;;2.22;;
1402;SDS011;696;48.546;9.896;2023-04-03T09:24:18;5.07;;;3.50;;
1402;SDS011;696;48.546;9.896;2023-04-03T09:26:45;6.75;;;3.35;;
1402;SDS011;696;48.546;9.896;2023-04-03T09:29:21;4.15;;;2.65;;
1402;SDS011;696;48.546;9.896;2023-04-03T09:31:59;5.45;;;3.17;;
1402;SDS011;696;48.546;9.896;2023-04-03T09:34:30;5.03;;;4.15;;
1402;SDS011;696;48.546;9.896;2023-04-03T09:36:58;15.00;;;9.32;;
1402;SDS011;696;48.546;9.896;2023-04-03T09:39:30;10.93;;;5.80;;
1402;SDS011;696;48.546;9.896;2023-04-03T09:44:22;2.83;;;1.95;;
1402;SDS011;696;48.546;9.896;2023-04-03T09:46:52;3.38;;;1.92;;
1402;SDS011;696;48.546;9.896;2023-04-03T09:49:18;3.65;;;2.30;;
1402;SDS011;696;48.546;9.896;2023-04-03T09:51:44;6.13;;;2.20;;
1402;SDS011;696;48.546;9.896;2023-04-03T09:54:44;2.67;;;2.10;;
1402;SDS011;696;48.546;9.896;2023-04-03T09:59:31;8.23;;;2.67;;
1402;SDS011;696;48.546;9.896;2023-04-03T10:02:21;3.30;;;2.13;;
1402;SDS011;696;48.546;9.896;2023-04-03T10:04:58;6.28;;;2.60;;
1402;SDS011;696;48.546;9.896;2023-04-03T10:09:58;10.15;;;3.88;;
1402;SDS011;696;48.546;9.896;2023-04-03T10:12:25;6.85;;;3.88;;
1402;SDS011;696;48.546;9.896;2023-04-03T10:14:54;7.90;;;4.90;;
1402;SDS011;696;48.546;9.896;2023-04-03T10:34:43;4.13;;;2.72;;
1402;SDS011;696;48.546;9.896;2023-04-03T10:45:15;3.03;;;2.00;;
1402;SDS011;696;48.546;9.896;2023-04-03T10:50:39;2.63;;;2.05;;
1402;SDS011;696;48.546;9.896;2023-04-03T10:56:12;5.22;;;2.38;;
1402;SDS011;696;48.546;9.896;2023-04-03T10:58:48;2.97;;;2.13;;
1402;SDS011;696;48.546;9.896;2023-04-03T11:01:20;2.85;;;2.08;;
1402;SDS011;696;48.546;9.896;2023-04-03T11:03:52;4.03;;;2.35;;
1402;SDS011;696;48.546;9.896;2023-04-03T11:06:19;5.30;;;2.65;;
1402;SDS011;696;48.546;9.896;2023-04-03T11:08:49;4.28;;;2.05;;
1402;SDS011;696;48.546;9.896;2023-04-03T11:11:33;8.35;;;2.40;;
1402;SDS011;696;48.546;9.896;2023-04-03T11:14:14;3.92;;;2.42;;
1402;SDS011;696;48.546;9.896;2023-04-03T11:22:34;4.15;;;2.60;;
1402;SDS011;696;48.546;9.896;2023-04-03T11:27:44;3.33;;;2.28;;
1402;SDS011;696;48.546;9.896;2023-04-03T11:30:37;4.47;;;2.00;;
1402;SDS011;696;48.546;9.896;2023-04-03T11:35:55;5.43;;;2.33;;
1402;SDS011;696;48.546;9.896;2023-04-03T11:38:28;2.65;;;2.00;;
1402;SDS011;696;48.546;9.896;2023-04-03T11:40:56;3.83;;;2.40;;
1402;SDS011;696;48.546;9.896;2023-04-03T11:46:06;7.15;;;3.28;;
1402;SDS011;696;48.546;9.896;2023-04-03T11:51:03;3.60;;;3.05;;
1402;SDS011;696;48.546;9.896;2023-04-03T12:05:49;6.38;;;2.70;;
1402;SDS011;696;48.546;9.896;2023-04-03T12:08:25;3.42;;;2.80;;
1402;SDS011;696;48.546;9.896;2023-04-03T12:16:19;4.65;;;2.50;;
1402;SDS011;696;48.546;9.896;2023-04-03T12:18:55;4.63;;;2.10;;
1402;SDS011;696;48.546;9.896;2023-04-03T12:23:58;10.25;;;2.60;;
1402;SDS011;696;48.546;9.896;2023-04-03T12:29:15;2.05;;;1.75;;
1402;SDS011;696;48.546;9.896;2023-04-03T12:32:34;6.65;;;2.83;;
1402;SDS011;696;48.546;9.896;2023-04-03T12:37:37;2.88;;;2.10;;
1402;SDS011;696;48.546;9.896;2023-04-03T12:40:09;4.43;;;2.05;;
1402;SDS011;696;48.546;9.896;2023-04-03T12:43:00;5.70;;;2.75;;
1402;SDS011;696;48.546;9.896;2023-04-03T12:45:29;3.75;;;2.30;;
1402;SDS011;696;48.546;9.896;2023-04-03T12:48:06;3.92;;;2.40;;
1402;SDS011;696;48.546;9.896;2023-04-03T12:50:39;2.60;;;2.08;;
1402;SDS011;696;48.546;9.896;2023-04-03T12:53:18;3.15;;;2.08;;
1402;SDS011;696;48.546;9.896;2023-04-03T12:55:45;11.40;;;2.17;;
1402;SDS011;696;48.546;9.896;2023-04-03T12:58:17;3.95;;;1.85;;
1402;SDS011;696;48.546;9.896;2023-04-03T13:00:57;3.67;;;1.60;;
1402;SDS011;696;48.546;9.896;2023-04-03T13:03:25;3.33;;;1.88;;
1402;SDS011;696;48.546;9.896;2023-04-03T13:05:52;2.83;;;2.00;;
1402;SDS011;696;48.546;9.896;2023-04-03T13:08:19;9.88;;;3.33;;
1402;SDS011;696;48.546;9.896;2023-04-03T13:13:27;8.13;;;2.70;;
1402;SDS011;696;48.546;9.896;2023-04-03T13:15:53;2.88;;;1.63;;
1402;SDS011;696;48.546;9.896;2023-04-03T13:18:33;3.72;;;1.80;;
1402;SDS011;696;48.546;9.896;2023-04-03T13:21:04;2.40;;;1.67;;
1402;SDS011;696;48.546;9.896;2023-04-03T13:23:31;1.95;;;1.33;;
1402;SDS011;696;48.546;9.896;2023-04-03T13:25:57;9.10;;;1.95;;
1402;SDS011;696;48.546;9.896;2023-04-03T13:28:28;9.27;;;2.72;;
1402;SDS011;696;48.546;9.896;2023-04-03T13:33:35;2.40;;;2.10;;
1402;SDS011;696;48.546;9.896;2023-04-03T13:36:08;3.78;;;1.92;;
1402;SDS011;696;48.546;9.896;2023-04-03T13:38:42;4.28;;;2.17;;
1402;SDS011;696;48.546;9.896;2023-04-03T13:41:22;4.75;;;3.00;;
1402;SDS011;696;48.546;9.896;2023-04-03T13:43:55;4.80;;;2.63;;
1402;SDS011;696;48.546;9.896;2023-04-03T13:46:27;4.88;;;2.95;;
1402;SDS011;696;48.546;9.896;2023-04-03T13:48:53;25.50;;;8.38;;
1402;SDS011;696;48.546;9.896;2023-04-03T13:53:50;7.43;;;4.25;;
1402;SDS011;696;48.546;9.896;2023-04-03T13:56:41;3.42;;;2.42;;
1402;SDS011;696;48.546;9.896;2023-04-03T14:04:11;1.73;;;1.48;;
1402;SDS011;696;48.546;9.896;2023-04-03T14:06:38;1.73;;;1.45;;
1402;SDS011;696;48.546;9.896;2023-04-03T14:09:04;2.40;;;2.20;;
1402;SDS011;696;48.546;9.896;2023-04-03T14:11:29;1.73;;;1.38;;
1402;SDS011;696;48.546;9.896;2023-04-03T14:13:58;2.78;;;2.22;;
1402;SDS011;696;48.546;9.896;2023-04-03T14:16:26;2.70;;;1.83;;
1402;SDS011;696;48.546;9.896;2023-04-03T14:18:54;3.33;;;2.15;;
1402;SDS011;696;48.546;9.896;2023-04-03T14:21:20;2.70;;;1.80;;
1402;SDS011;696;48.546;9.896;2023-04-03T14:23:46;5.05;;;1.83;;
1402;SDS011;696;48.546;9.896;2023-04-03T14:26:19;3.33;;;2.45;;
1402;SDS011;696;48.546;9.896;2023-04-03T14:28:48;3.95;;;2.42;;
1402;SDS011;696;48.546;9.896;2023-04-03T14:31:15;8.98;;;2.25;;
1402;SDS011;696;48.546;9.896;2023-04-03T14:33:41;4.60;;;1.92;;
1402;SDS011;696;48.546;9.896;2023-04-03T14:36:40;2.17;;;1.60;;
1402;SDS011;696;48.546;9.896;2023-04-03T14:38:59;3.20;;;2.00;;
1402;SDS011;696;48.546;9.896;2023-04-03T14:41:25;3.42;;;2.10;;
1402;SDS011;696;48.546;9.896;2023-04-03T14:43:51;2.65;;;2.00;;
1402;SDS011;696;48.546;9.896;2023-04-03T14:46:18;2.97;;;2.05;;
1402;SDS011;696;48.546;9.896;2023-04-03T14:48:46;3.42;;;2.50;;
1402;SDS011;696;48.546;9.896;2023-04-03T14:51:12;2.05;;;1.80;;
1402;SDS011;696;48.546;9.896;2023-04-03T14:53:38;2.78;;;1.63;;
1402;SDS011;696;48.546;9.896;2023-04-03T14:56:27;6.97;;;1.63;;
1402;SDS011;696;48.546;9.896;2023-04-03T14:59:01;2.17;;;1.65;;
1402;SDS011;696;48.546;9.896;2023-04-03T15:01:27;2.30;;;1.65;;
1402;SDS011;696;48.546;9.896;2023-04-03T15:03:53;3.75;;;2.15;;
1402;SDS011;696;48.546;9.896;2023-04-03T15:06:18;2.08;;;1.45;;
1402;SDS011;696;48.546;9.896;2023-04-03T15:08:45;3.55;;;2.10;;
1402;SDS011;696;48.546;9.896;2023-04-03T15:11:11;5.22;;;2.03;;
1402;SDS011;696;48.546;9.896;2023-04-03T15:13:37;2.85;;;2.08;;
1402;SDS011;696;48.546;9.896;2023-04-03T15:16:04;3.47;;;1.90;;
1402;SDS011;696;48.546;9.896;2023-04-03T15:18:31;4.03;;;2.00;;
1402;SDS011;696;48.546;9.896;2023-04-03T15:21:00;6.55;;;2.20;;
1402;SDS011;696;48.546;9.896;2023-04-03T15:23:25;3.25;;;2.13;;
1402;SDS011;696;48.546;9.896;2023-04-03T15:25:51;3.28;;;2.05;;
1402;SDS011;696;48.546;9.896;2023-04-03T15:30:52;3.97;;;1.55;;
1402;SDS011;696;48.546;9.896;2023-04-03T15:33:18;6.18;;;1.77;;
1402;SDS011;696;48.546;9.896;2023-04-03T15:35:43;4.50;;;1.88;;
1402;SDS011;696;48.546;9.896;2023-04-03T15:38:09;3.38;;;1.88;;
1402;SDS011;696;48.546;9.896;2023-04-03T15:40:34;6.25;;;3.50;;
1402;SDS011;696;48.546;9.896;2023-04-03T15:43:00;5.00;;;2.58;;
1402;SDS011;696;48.546;9.896;2023-04-03T15:45:27;5.82;;;2.60;;
1402;SDS011;696;48.546;9.896;2023-04-03T15:47:53;8.95;;;2.60;;
1402;SDS011;696;48.546;9.896;2023-04-03T15:50:19;3.40;;;1.88;;
1402;SDS011;696;48.546;9.896;2023-04-03T15:52:47;5.05;;;2.08;;
1402;SDS011;696;48.546;9.896;2023-04-03T15:55:13;4.85;;;2.70;;
1402;SDS011;696;48.546;9.896;2023-04-03T15:57:38;6.93;;;1.80;;
1402;SDS011;696;48.546;9.896;2023-04-03T16:00:04;2.17;;;1.63;;
1402;SDS011;696;48.546;9.896;2023-04-03T16:02:30;3.50;;;1.90;;
1402;SDS011;696;48.546;9.896;2023-04-03T16:04:56;3.58;;;2.30;;
1402;SDS011;696;48.546;9.896;2023-04-03T16:07:21;3.90;;;2.45;;
1402;SDS011;696;48.546;9.896;2023-04-03T16:09:47;4.53;;;2.42;;
1402;SDS011;696;48.546;9.896;2023-04-03T16:12:12;6.40;;;3.08;;
1402;SDS011;696;48.546;9.896;2023-04-03T16:14:37;7.75;;;2.60;;
1402;SDS011;696;48.546;9.896;2023-04-03T16:17:03;7.05;;;3.50;;
1402;SDS011;696;48.546;9.896;2023-04-03T16:19:28;7.07;;;3.75;;
1402;SDS011;696;48.546;9.896;2023-04-03T16:21:55;6.05;;;3.88;;
1402;SDS011;696;48.546;9.896;2023-04-03T16:24:20;4.18;;;2.30;;
1402;SDS011;696;48.546;9.896;2023-04-03T16:26:46;3.20;;;2.00;;
1402;SDS011;696;48.546;9.896;2023-04-03T16:29:11;10.00;;;3.33;;
1402;SDS011;696;48.546;9.896;2023-04-03T16:31:37;12.70;;;4.15;;
1402;SDS011;696;48.546;9.896;2023-04-03T16:34:03;4.85;;;3.80;;
1402;SDS011;696;48.546;9.896;2023-04-03T16:36:28;8.85;;;4.53;;
1402;SDS011;696;48.546;9.896;2023-04-03T16:38:53;4.32;;;2.45;;
1402;SDS011;696;48.546;9.896;2023-04-03T16:41:19;10.90;;;2.30;;
1402;SDS011;696;48.546;9.896;2023-04-03T16:43:44;4.80;;;2.22;;
1402;SDS011;696;48.546;9.896;2023-04-03T16:46:09;5.20;;;3.03;;
1402;SDS011;696;48.546;9.896;2023-04-03T16:48:35;9.88;;;3.05;;
1402;SDS011;696;48.546;9.896;2023-04-03T16:51:01;4.90;;;3.05;;
1402;SDS011;696;48.546;9.896;2023-04-03T16:53:26;3.83;;;2.47;;
1402;SDS011;696;48.546;9.896;2023-04-03T16:55:52;7.43;;;3.55;;
1402;SDS011;696;48.546;9.896;2023-04-03T16:58:18;3.15;;;2.38;;
1402;SDS011;696;48.546;9.896;2023-04-03T17:00:44;4.22;;;2.45;;
1402;SDS011;696;48.546;9.896;2023-04-03T17:03:09;2.35;;;2.00;;
1402;SDS011;696;48.546;9.896;2023-04-03T17:05:35;4.65;;;2.53;;
1402;SDS011;696;48.546;9.896;2023-04-03T17:08:00;3.42;;;2.15;;
1402;SDS011;696;48.546;9.896;2023-04-03T17:10:26;4.78;;;2.55;;
1402;SDS011;696;48.546;9.896;2023-04-03T17:12:52;8.40;;;3.20;;
1402;SDS011;696;48.546;9.896;2023-04-03T17:15:17;5.03;;;3.22;;
1402;SDS011;696;48.546;9.896;2023-04-03T17:17:44;5.88;;;3.17;;
1402;SDS011;696;48.546;9.896;2023-04-03T17:20:10;7.60;;;4.28;;
1402;SDS011;696;48.546;9.896;2023-04-03T17:22:36;8.63;;;4.22;;
1402;SDS011;696;48.546;9.896;2023-04-03T17:25:01;5.05;;;3.53;;
1402;SDS011;696;48.546;9.896;2023-04-03T17:27:27;7.60;;;4.03;;